Flight Track Log - Related Links

Times and Time Zones

All times are in EST time to prevent confusion due to time zone crossing. See the N66518 flight status page for this flight to view local times or setup timezone preferences in your user account.

Time Position Orientation Groundspeed Altitude Reporting Facility
EST Latitude Longitude Course Direction KTS MPH feet Rate Location/Type
Mon 11:41:14 AM 24.7542 -81.7503 16° North 147 169 4,800  Level Miami Center
Mon 11:42:00 AM 24.8386 -81.7014 North  Level FlightAware Approximate
Mon 11:42:14 AM 24.7900 -81.7381 17° North 145 167 5,600  Level Miami Center
Mon 11:43:00 AM 24.8869 -81.6982 24° Northeast  Level FlightAware Approximate
Mon 11:43:14 AM 24.8281 -81.7258 16° North 145 167 6,300  Level Miami Center
Mon 11:44:00 AM 24.9312 -81.6760 24° Northeast  Level FlightAware Approximate
Mon 11:44:14 AM 24.8617 -81.7156 16° North 140 161 7,100  Level Miami Center
Mon 11:45:00 AM 24.9770 -81.6582 16° North  Level FlightAware Approximate
Mon 11:45:14 AM 24.8975 -81.7033 17° North 134 154 7,900  Level Miami Center
Mon 11:46:14 AM 24.9378 -81.6911 15° North 134 154 8,100 100 Climbing Miami Center
Mon 11:47:14 AM 24.9819 -81.6769 16° North 145 167 8,100  Level Miami Center
Mon 11:48:14 AM 25.0264 -81.6625 16° North 158 182 8,100 -50 Level Miami Center
Mon 11:49:14 AM 25.0747 -81.6483 15° North 163 188 8,000 -50 Descending Miami Center
Mon 11:50:14 AM 25.1211 -81.6342 15° North 168 193 8,000  Level Miami Center
Mon 11:51:14 AM 25.1678 -81.6178 18° North 168 193 8,000  Level Miami Center
Mon 11:52:14 AM 25.2142 -81.6033 16° North 168 193 8,000  Level Miami Center
Mon 11:53:14 AM 25.2647 -81.5892 14° North 168 193 8,000  Level Miami Center
Mon 11:55:14 AM 25.3575 -81.5561 18° North 168 193 8,000  Level Miami Center
Mon 11:56:14 AM 25.4056 -81.5581 358° North 163 188 8,000  Level Miami Center
Mon 11:57:14 AM 25.4511 -81.5667 350° North 163 188 8,000 -33 Level Miami Center
Mon 11:59:14 AM 25.5444 -81.5864 349° North 163 188 7,900 -20 Descending Miami Center
Mon 12:02:14 PM 25.6753 -81.6100 351° North 163 188 7,900  Level Miami Center
Mon 12:04:14 PM 25.7750 -81.6300 350° North 163 188 7,900  Level Miami Center
Mon 12:06:14 PM 25.8642 -81.6475 350° North 163 188 7,900  Level Miami Center
Mon 12:07:14 PM 25.9097 -81.6561 350° North 163 188 7,900  Level Miami Center
Mon 12:08:00 PM 25.9272 -81.6594 351° North  Level FlightAware Approximate
Mon 12:08:14 PM 25.9597 -81.6650 351° North 163 188 7,900  Level Miami Center
Mon 12:09:14 PM 26.0053 -81.6739 350° North 163 188 7,900  Level Miami Center
Mon 12:10:14 PM 26.0508 -81.6825 350° North 163 188 7,900  Level Miami Center
Mon 12:26:38 PM 26.8108 -81.8069 North 156 180 7,900  Level Miami Center
Mon 12:27:00 PM 26.7874 -81.7587 North  Level FlightAware Approximate
Mon 12:27:38 PM 26.8453 -81.8361 323° Northwest 175 201 7,900  Level Miami Center
Mon 12:29:38 PM 26.9208 -81.8861 15° North 170 196 7,900  Level Miami Center
Mon 12:32:38 PM 27.0511 -81.9197 17° North 159 183 7,900  Level Miami Center
Mon 12:33:38 PM 27.0967 -81.9308 348° North 159 183 7,900  Level Miami Center
Mon 12:34:38 PM 27.1400 -81.9444 344° North 159 183 7,900  Level Miami Center
Mon 12:35:38 PM 27.1883 -81.9350 10° North 159 183 7,900  Level Miami Center
Mon 12:36:38 PM 27.2347 -81.9253 11° North 164 189 7,900 50 Level Miami Center
Mon 12:37:38 PM 27.2853 -81.9136 12° North 164 189 8,000 50 Climbing Miami Center
Mon 12:38:00 PM 27.2759 -81.7667 17° North  Level Estimated
Mon 12:38:38 PM 27.3336 -81.8992 15° North 164 189 8,000  Level Miami Center
Mon 12:39:38 PM 27.3822 -81.8872 12° North 164 189 8,000  Level Miami Center
Mon 12:40:38 PM 27.4306 -81.8731 15° North 169 194 8,000 -150 Level Miami Center
Mon 12:41:38 PM 27.4831 -81.8614 11° North 169 194 7,700 -400 Descending Miami Center
Mon 12:42:38 PM 27.5358 -81.8472 13° North 182 209 7,200 -550 Descending Miami Center
Mon 12:43:38 PM 27.5906 -81.8308 15° North 188 216 6,600 -550 Descending Miami Center
Mon 12:44:38 PM 27.6456 -81.8169 13° North 188 216 6,100 -500 Descending Miami Center
Mon 12:45:38 PM 27.6958 -81.8050 12° North 188 216 5,600 -550 Descending Miami Center
Mon 12:46:38 PM 27.7486 -81.7908 13° North 188 216 5,000 -300 Descending Miami Center
Mon 12:47:38 PM 27.8033 -81.7769 13° North 181 208 5,000  Level Miami Center
Mon 12:49:35 PM 27.9000 -81.7500 14° North 178 205 5,000  Level Orlando TRACON
Mon 12:50:36 PM 27.9500 -81.7500 360° North 179 206 5,000  Level Orlando TRACON
Mon 12:51:36 PM 28.0000 -81.7500 360° North 180 207 5,000  Level Orlando TRACON
Mon 12:52:31 PM 28.0500 -81.7500 360° North 180 207 5,000  Level Orlando TRACON
Mon 12:53:37 PM 28.1000 -81.7333 16° North 186 214 5,000  Level Orlando TRACON
Mon 12:54:37 PM 28.1500 -81.7333 360° North 179 206 5,000 -200 Level Orlando TRACON
Mon 12:55:37 PM 28.2000 -81.7167 16° North 182 209 4,600 -400 Descending Orlando TRACON
Mon 12:56:37 PM 28.2500 -81.7167 360° North 189 217 4,200 -265 Descending Orlando TRACON
Mon 12:58:38 PM 28.3500 -81.7000 90° East 176 203 3,800 -331 Descending Orlando TRACON
Mon 12:59:38 PM 28.4000 -81.7000 360° North 181 208 3,200 -597 Descending Orlando TRACON
Mon 01:01:39 PM 28.4500 -81.6000 60° Northeast 186 214 2,000 -398 Descending Orlando TRACON
Mon 01:02:39 PM 28.4667 -81.5500 69° East 164 189 2,000  Level Orlando TRACON
Mon 01:04:39 PM 28.5000 -81.4667 66° East 142 163 2,000 -69 Level Orlando TRACON
Mon 01:05:34 PM 28.5167 -81.4333 60° Northeast 122 140 1,800 -446 Descending Orlando TRACON
Mon 01:06:40 PM 28.5167 -81.4000 90° East 112 129 1,100 -600 Descending Orlando TRACON
Mon 01:07:34 PM 28.5333 -81.3667 60° Northeast 105 121 600 -200 Descending Orlando TRACON
Mon 01:08:40 PM 28.5500 -81.3333 60° Northeast 106 122 700 91 Climbing Orlando TRACON

Login

Don't have an account? Register now (free) for customized features, flight alerts, and more!